sensor_id;sensor_type;location;lat;lon;timestamp;temperature;humidity
18339;DHT22;9295;44.484;11.240;2022-11-20T00:01:33;10.20;99.90
18339;DHT22;9295;44.484;11.240;2022-11-20T00:04:02;10.20;99.90
18339;DHT22;9295;44.484;11.240;2022-11-20T00:06:30;10.20;99.90
18339;DHT22;9295;44.484;11.240;2022-11-20T00:09:00;10.20;99.90
18339;DHT22;9295;44.484;11.240;2022-11-20T00:11:30;10.20;99.90
18339;DHT22;9295;44.484;11.240;2022-11-20T00:14:01;10.20;99.90
18339;DHT22;9295;44.484;11.240;2022-11-20T00:16:31;10.20;99.90
18339;DHT22;9295;44.484;11.240;2022-11-20T00:19:00;10.20;99.90
18339;DHT22;9295;44.484;11.240;2022-11-20T00:21:29;10.20;99.90
18339;DHT22;9295;44.484;11.240;2022-11-20T00:23:59;10.20;99.90
18339;DHT22;9295;44.484;11.240;2022-11-20T00:26:28;10.20;99.90
18339;DHT22;9295;44.484;11.240;2022-11-20T00:28:59;10.20;99.90
18339;DHT22;9295;44.484;11.240;2022-11-20T00:31:28;10.20;99.90
18339;DHT22;9295;44.484;11.240;2022-11-20T00:33:56;10.20;99.90
18339;DHT22;9295;44.484;11.240;2022-11-20T00:36:26;10.20;99.90
18339;DHT22;9295;44.484;11.240;2022-11-20T00:38:57;10.20;99.90
18339;DHT22;9295;44.484;11.240;2022-11-20T00:41:28;10.20;99.90
18339;DHT22;9295;44.484;11.240;2022-11-20T00:43:57;10.20;99.90
18339;DHT22;9295;44.484;11.240;2022-11-20T00:46:26;10.20;99.90
18339;DHT22;9295;44.484;11.240;2022-11-20T00:48:55;10.20;99.90
18339;DHT22;9295;44.484;11.240;2022-11-20T00:51:26;10.20;99.90
18339;DHT22;9295;44.484;11.240;2022-11-20T00:53:55;10.10;99.90
18339;DHT22;9295;44.484;11.240;2022-11-20T00:56:24;10.10;99.90
18339;DHT22;9295;44.484;11.240;2022-11-20T00:58:54;10.10;99.90
18339;DHT22;9295;44.484;11.240;2022-11-20T01:01:24;10.10;99.90
18339;DHT22;9295;44.484;11.240;2022-11-20T01:03:57;10.10;99.90
18339;DHT22;9295;44.484;11.240;2022-11-20T01:06:27;10.10;99.90
18339;DHT22;9295;44.484;11.240;2022-11-20T01:08:57;10.00;99.90
18339;DHT22;9295;44.484;11.240;2022-11-20T01:11:29;10.00;99.90
18339;DHT22;9295;44.484;11.240;2022-11-20T01:14:00;10.00;99.90
18339;DHT22;9295;44.484;11.240;2022-11-20T01:16:30;10.10;99.90
18339;DHT22;9295;44.484;11.240;2022-11-20T01:19:01;10.10;99.90
18339;DHT22;9295;44.484;11.240;2022-11-20T01:21:32;10.00;99.90
18339;DHT22;9295;44.484;11.240;2022-11-20T01:24:01;10.00;99.90
18339;DHT22;9295;44.484;11.240;2022-11-20T01:26:31;10.00;99.90
18339;DHT22;9295;44.484;11.240;2022-11-20T01:29:01;10.00;99.90
18339;DHT22;9295;44.484;11.240;2022-11-20T01:31:31;10.10;99.90
18339;DHT22;9295;44.484;11.240;2022-11-20T01:34:02;10.10;99.90
18339;DHT22;9295;44.484;11.240;2022-11-20T01:36:32;10.10;99.90
18339;DHT22;9295;44.484;11.240;2022-11-20T01:39:02;10.10;99.90
18339;DHT22;9295;44.484;11.240;2022-11-20T01:41:32;10.10;99.90
18339;DHT22;9295;44.484;11.240;2022-11-20T01:44:21;10.20;99.90
18339;DHT22;9295;44.484;11.240;2022-11-20T01:46:55;10.10;99.90
18339;DHT22;9295;44.484;11.240;2022-11-20T01:49:28;10.10;99.90
18339;DHT22;9295;44.484;11.240;2022-11-20T01:52:02;10.10;99.90
18339;DHT22;9295;44.484;11.240;2022-11-20T01:54:36;10.10;99.90
18339;DHT22;9295;44.484;11.240;2022-11-20T01:57:06;10.10;99.90
18339;DHT22;9295;44.484;11.240;2022-11-20T01:59:39;10.10;99.90
18339;DHT22;9295;44.484;11.240;2022-11-20T02:02:09;10.10;99.90
18339;DHT22;9295;44.484;11.240;2022-11-20T02:04:37;10.10;99.90
18339;DHT22;9295;44.484;11.240;2022-11-20T02:07:06;10.10;99.90
18339;DHT22;9295;44.484;11.240;2022-11-20T02:09:35;10.10;99.90
18339;DHT22;9295;44.484;11.240;2022-11-20T02:12:04;10.10;99.90
18339;DHT22;9295;44.484;11.240;2022-11-20T02:14:54;10.20;99.90
18339;DHT22;9295;44.484;11.240;2022-11-20T02:17:21;10.10;99.90
18339;DHT22;9295;44.484;11.240;2022-11-20T02:19:51;10.10;99.90
18339;DHT22;9295;44.484;11.240;2022-11-20T02:22:22;10.10;99.90
18339;DHT22;9295;44.484;11.240;2022-11-20T02:24:53;10.10;99.90
18339;DHT22;9295;44.484;11.240;2022-11-20T02:27:22;10.10;99.90
18339;DHT22;9295;44.484;11.240;2022-11-20T02:29:52;10.10;99.90
18339;DHT22;9295;44.484;11.240;2022-11-20T02:32:23;10.10;99.90
18339;DHT22;9295;44.484;11.240;2022-11-20T02:34:52;10.10;99.90
18339;DHT22;9295;44.484;11.240;2022-11-20T02:37:21;10.10;99.90
18339;DHT22;9295;44.484;11.240;2022-11-20T02:39:51;10.10;99.90
18339;DHT22;9295;44.484;11.240;2022-11-20T02:42:20;10.10;99.90
18339;DHT22;9295;44.484;11.240;2022-11-20T02:44:49;10.10;99.90
18339;DHT22;9295;44.484;11.240;2022-11-20T02:47:17;10.10;99.90
18339;DHT22;9295;44.484;11.240;2022-11-20T02:49:45;10.10;99.90
18339;DHT22;9295;44.484;11.240;2022-11-20T02:52:14;10.10;99.90
18339;DHT22;9295;44.484;11.240;2022-11-20T02:54:42;10.10;99.90
18339;DHT22;9295;44.484;11.240;2022-11-20T02:57:11;10.10;99.90
18339;DHT22;9295;44.484;11.240;2022-11-20T02:59:41;10.00;99.90
18339;DHT22;9295;44.484;11.240;2022-11-20T03:02:09;10.00;99.90
18339;DHT22;9295;44.484;11.240;2022-11-20T03:04:37;10.00;99.90
18339;DHT22;9295;44.484;11.240;2022-11-20T03:07:07;10.00;99.90
18339;DHT22;9295;44.484;11.240;2022-11-20T03:09:36;10.00;99.90
18339;DHT22;9295;44.484;11.240;2022-11-20T03:12:05;10.00;99.90
18339;DHT22;9295;44.484;11.240;2022-11-20T03:14:34;10.00;99.90
18339;DHT22;9295;44.484;11.240;2022-11-20T03:17:04;10.00;99.90
18339;DHT22;9295;44.484;11.240;2022-11-20T03:19:33;9.90;99.90
18339;DHT22;9295;44.484;11.240;2022-11-20T03:22:01;9.90;99.90
18339;DHT22;9295;44.484;11.240;2022-11-20T03:24:30;9.90;99.90
18339;DHT22;9295;44.484;11.240;2022-11-20T03:26:58;9.90;99.90
18339;DHT22;9295;44.484;11.240;2022-11-20T03:29:26;9.90;99.90
18339;DHT22;9295;44.484;11.240;2022-11-20T03:31:55;9.80;99.90
18339;DHT22;9295;44.484;11.240;2022-11-20T03:34:25;9.80;99.90
18339;DHT22;9295;44.484;11.240;2022-11-20T03:36:53;9.70;99.90
18339;DHT22;9295;44.484;11.240;2022-11-20T03:39:22;9.70;99.90
18339;DHT22;9295;44.484;11.240;2022-11-20T03:41:50;9.70;99.90
18339;DHT22;9295;44.484;11.240;2022-11-20T03:44:21;9.60;99.90
18339;DHT22;9295;44.484;11.240;2022-11-20T03:46:49;9.60;99.90
18339;DHT22;9295;44.484;11.240;2022-11-20T03:49:18;9.50;99.90
18339;DHT22;9295;44.484;11.240;2022-11-20T03:51:48;9.50;99.90
18339;DHT22;9295;44.484;11.240;2022-11-20T03:54:16;9.50;99.90
18339;DHT22;9295;44.484;11.240;2022-11-20T03:56:45;9.50;99.90
18339;DHT22;9295;44.484;11.240;2022-11-20T03:59:13;9.40;99.90
18339;DHT22;9295;44.484;11.240;2022-11-20T04:01:42;9.40;99.90
18339;DHT22;9295;44.484;11.240;2022-11-20T04:04:15;9.40;99.90
18339;DHT22;9295;44.484;11.240;2022-11-20T04:06:44;9.40;99.90
18339;DHT22;9295;44.484;11.240;2022-11-20T04:09:14;9.30;99.90
18339;DHT22;9295;44.484;11.240;2022-11-20T04:11:42;9.40;99.90
18339;DHT22;9295;44.484;11.240;2022-11-20T04:14:13;9.40;99.90
18339;DHT22;9295;44.484;11.240;2022-11-20T04:16:42;9.30;99.90
18339;DHT22;9295;44.484;11.240;2022-11-20T04:19:12;9.30;99.90
18339;DHT22;9295;44.484;11.240;2022-11-20T04:21:42;9.30;99.90
18339;DHT22;9295;44.484;11.240;2022-11-20T04:24:11;9.30;99.90
18339;DHT22;9295;44.484;11.240;2022-11-20T04:26:41;9.20;99.90
18339;DHT22;9295;44.484;11.240;2022-11-20T04:29:11;9.20;99.90
18339;DHT22;9295;44.484;11.240;2022-11-20T04:31:39;9.20;99.90
18339;DHT22;9295;44.484;11.240;2022-11-20T04:34:10;9.10;99.90
18339;DHT22;9295;44.484;11.240;2022-11-20T04:36:39;9.10;99.90
18339;DHT22;9295;44.484;11.240;2022-11-20T04:39:12;9.10;99.90
18339;DHT22;9295;44.484;11.240;2022-11-20T04:41:43;9.10;99.90
18339;DHT22;9295;44.484;11.240;2022-11-20T04:44:11;9.10;99.90
18339;DHT22;9295;44.484;11.240;2022-11-20T04:46:41;9.00;99.90
18339;DHT22;9295;44.484;11.240;2022-11-20T04:49:10;9.00;99.90
18339;DHT22;9295;44.484;11.240;2022-11-20T04:51:39;9.00;99.90
18339;DHT22;9295;44.484;11.240;2022-11-20T04:54:09;9.00;99.90
18339;DHT22;9295;44.484;11.240;2022-11-20T04:56:38;8.90;99.90
18339;DHT22;9295;44.484;11.240;2022-11-20T04:59:08;8.90;99.90
18339;DHT22;9295;44.484;11.240;2022-11-20T05:01:37;9.00;99.90
18339;DHT22;9295;44.484;11.240;2022-11-20T05:04:05;8.90;99.90
18339;DHT22;9295;44.484;11.240;2022-11-20T05:06:34;8.90;99.90
18339;DHT22;9295;44.484;11.240;2022-11-20T05:09:02;8.90;99.90
18339;DHT22;9295;44.484;11.240;2022-11-20T05:11:31;8.90;99.90
18339;DHT22;9295;44.484;11.240;2022-11-20T05:14:00;8.80;99.90
18339;DHT22;9295;44.484;11.240;2022-11-20T05:16:30;8.80;99.90
18339;DHT22;9295;44.484;11.240;2022-11-20T05:18:58;8.80;99.90
18339;DHT22;9295;44.484;11.240;2022-11-20T05:21:27;8.70;99.90
18339;DHT22;9295;44.484;11.240;2022-11-20T05:23:55;8.70;99.90
18339;DHT22;9295;44.484;11.240;2022-11-20T05:26:24;8.70;99.90
18339;DHT22;9295;44.484;11.240;2022-11-20T05:28:52;8.60;99.90
18339;DHT22;9295;44.484;11.240;2022-11-20T05:31:22;8.60;99.90
18339;DHT22;9295;44.484;11.240;2022-11-20T05:33:56;8.60;99.90
18339;DHT22;9295;44.484;11.240;2022-11-20T05:36:25;8.60;99.90
18339;DHT22;9295;44.484;11.240;2022-11-20T05:38:53;8.60;99.90
18339;DHT22;9295;44.484;11.240;2022-11-20T05:41:27;8.50;99.90
18339;DHT22;9295;44.484;11.240;2022-11-20T05:43:58;8.50;99.90
18339;DHT22;9295;44.484;11.240;2022-11-20T05:46:26;8.50;99.90
18339;DHT22;9295;44.484;11.240;2022-11-20T05:48:57;8.50;99.90
18339;DHT22;9295;44.484;11.240;2022-11-20T05:51:26;8.50;99.90
18339;DHT22;9295;44.484;11.240;2022-11-20T05:53:56;8.50;99.90
18339;DHT22;9295;44.484;11.240;2022-11-20T05:56:25;8.50;99.90
18339;DHT22;9295;44.484;11.240;2022-11-20T05:58:53;8.40;99.90
18339;DHT22;9295;44.484;11.240;2022-11-20T06:01:24;8.40;99.90
18339;DHT22;9295;44.484;11.240;2022-11-20T06:03:53;8.40;99.90
18339;DHT22;9295;44.484;11.240;2022-11-20T06:06:23;8.40;99.90
18339;DHT22;9295;44.484;11.240;2022-11-20T06:08:53;8.40;99.90
18339;DHT22;9295;44.484;11.240;2022-11-20T06:11:22;8.40;99.90
18339;DHT22;9295;44.484;11.240;2022-11-20T06:13:51;8.30;99.90
18339;DHT22;9295;44.484;11.240;2022-11-20T06:16:20;8.30;99.90
18339;DHT22;9295;44.484;11.240;2022-11-20T06:18:48;8.30;99.90
18339;DHT22;9295;44.484;11.240;2022-11-20T06:21:19;8.30;99.90
18339;DHT22;9295;44.484;11.240;2022-11-20T06:23:50;8.30;99.90
18339;DHT22;9295;44.484;11.240;2022-11-20T06:26:21;8.20;99.90
18339;DHT22;9295;44.484;11.240;2022-11-20T06:28:50;8.20;99.90
18339;DHT22;9295;44.484;11.240;2022-11-20T06:31:20;8.20;99.90
18339;DHT22;9295;44.484;11.240;2022-11-20T06:33:50;8.20;99.90
18339;DHT22;9295;44.484;11.240;2022-11-20T06:36:21;8.20;99.90
18339;DHT22;9295;44.484;11.240;2022-11-20T06:38:51;8.20;99.90
18339;DHT22;9295;44.484;11.240;2022-11-20T06:41:21;8.10;99.90
18339;DHT22;9295;44.484;11.240;2022-11-20T06:43:50;8.10;99.90
18339;DHT22;9295;44.484;11.240;2022-11-20T06:46:19;8.20;99.90
18339;DHT22;9295;44.484;11.240;2022-11-20T06:48:48;8.20;99.90
18339;DHT22;9295;44.484;11.240;2022-11-20T06:51:17;8.20;99.90
18339;DHT22;9295;44.484;11.240;2022-11-20T06:53:45;8.20;99.90
18339;DHT22;9295;44.484;11.240;2022-11-20T06:56:15;8.20;99.90
18339;DHT22;9295;44.484;11.240;2022-11-20T06:58:44;8.30;99.90
18339;DHT22;9295;44.484;11.240;2022-11-20T07:01:13;8.40;99.90
18339;DHT22;9295;44.484;11.240;2022-11-20T07:03:42;8.50;99.90
18339;DHT22;9295;44.484;11.240;2022-11-20T07:06:13;8.60;99.90
18339;DHT22;9295;44.484;11.240;2022-11-20T07:08:41;9.00;99.90
18339;DHT22;9295;44.484;11.240;2022-11-20T07:11:11;9.30;99.90
18339;DHT22;9295;44.484;11.240;2022-11-20T07:13:41;9.60;99.90
18339;DHT22;9295;44.484;11.240;2022-11-20T07:16:10;10.00;99.90
18339;DHT22;9295;44.484;11.240;2022-11-20T07:18:38;10.50;99.90
18339;DHT22;9295;44.484;11.240;2022-11-20T07:21:11;11.00;99.90
18339;DHT22;9295;44.484;11.240;2022-11-20T07:23:40;11.40;99.90
18339;DHT22;9295;44.484;11.240;2022-11-20T07:26:10;11.60;99.90
18339;DHT22;9295;44.484;11.240;2022-11-20T07:28:43;12.00;99.90
18339;DHT22;9295;44.484;11.240;2022-11-20T07:31:11;12.20;99.90
18339;DHT22;9295;44.484;11.240;2022-11-20T07:33:45;12.60;99.90
18339;DHT22;9295;44.484;11.240;2022-11-20T07:36:13;12.80;99.90
18339;DHT22;9295;44.484;11.240;2022-11-20T07:38:42;13.10;99.90
18339;DHT22;9295;44.484;11.240;2022-11-20T07:41:10;13.10;99.90
18339;DHT22;9295;44.484;11.240;2022-11-20T07:43:39;12.90;99.90
18339;DHT22;9295;44.484;11.240;2022-11-20T07:46:09;12.70;99.90
18339;DHT22;9295;44.484;11.240;2022-11-20T07:48:37;12.60;99.90
18339;DHT22;9295;44.484;11.240;2022-11-20T07:51:06;12.40;99.90
18339;DHT22;9295;44.484;11.240;2022-11-20T07:53:34;12.20;99.90
18339;DHT22;9295;44.484;11.240;2022-11-20T07:56:03;12.10;99.90
18339;DHT22;9295;44.484;11.240;2022-11-20T07:58:32;12.00;99.90
18339;DHT22;9295;44.484;11.240;2022-11-20T08:01:05;11.90;99.90
18339;DHT22;9295;44.484;11.240;2022-11-20T08:03:36;11.90;99.90
18339;DHT22;9295;44.484;11.240;2022-11-20T08:06:06;11.90;99.90
18339;DHT22;9295;44.484;11.240;2022-11-20T08:08:34;12.00;99.90
18339;DHT22;9295;44.484;11.240;2022-11-20T08:11:08;12.00;99.90
18339;DHT22;9295;44.484;11.240;2022-11-20T08:13:56;12.00;99.90
18339;DHT22;9295;44.484;11.240;2022-11-20T08:16:40;12.10;99.90
18339;DHT22;9295;44.484;11.240;2022-11-20T08:19:11;12.10;99.90
18339;DHT22;9295;44.484;11.240;2022-11-20T08:21:40;12.20;99.90
18339;DHT22;9295;44.484;11.240;2022-11-20T08:24:09;12.20;99.90
18339;DHT22;9295;44.484;11.240;2022-11-20T08:26:38;12.30;99.90
18339;DHT22;9295;44.484;11.240;2022-11-20T08:29:07;12.40;99.90
18339;DHT22;9295;44.484;11.240;2022-11-20T08:31:35;12.40;99.90
18339;DHT22;9295;44.484;11.240;2022-11-20T08:34:04;12.50;99.90
18339;DHT22;9295;44.484;11.240;2022-11-20T08:36:37;12.60;99.90
18339;DHT22;9295;44.484;11.240;2022-11-20T08:39:05;12.60;99.90
18339;DHT22;9295;44.484;11.240;2022-11-20T08:41:34;12.60;99.90
18339;DHT22;9295;44.484;11.240;2022-11-20T08:44:06;12.70;99.90
18339;DHT22;9295;44.484;11.240;2022-11-20T08:46:36;12.70;99.90
18339;DHT22;9295;44.484;11.240;2022-11-20T08:49:05;12.70;99.90
18339;DHT22;9295;44.484;11.240;2022-11-20T08:51:34;12.80;99.90
18339;DHT22;9295;44.484;11.240;2022-11-20T08:54:05;12.80;99.90
18339;DHT22;9295;44.484;11.240;2022-11-20T08:56:34;12.80;99.90
18339;DHT22;9295;44.484;11.240;2022-11-20T08:59:03;12.90;99.90
18339;DHT22;9295;44.484;11.240;2022-11-20T09:01:51;12.90;99.90
18339;DHT22;9295;44.484;11.240;2022-11-20T09:04:20;12.90;99.90
18339;DHT22;9295;44.484;11.240;2022-11-20T09:06:48;13.00;99.90
18339;DHT22;9295;44.484;11.240;2022-11-20T09:09:19;13.00;99.90
18339;DHT22;9295;44.484;11.240;2022-11-20T09:11:48;13.00;99.90
18339;DHT22;9295;44.484;11.240;2022-11-20T09:14:18;13.00;99.90
18339;DHT22;9295;44.484;11.240;2022-11-20T09:16:46;13.00;99.90
18339;DHT22;9295;44.484;11.240;2022-11-20T09:19:15;12.90;99.90
18339;DHT22;9295;44.484;11.240;2022-11-20T09:22:03;12.90;99.90
18339;DHT22;9295;44.484;11.240;2022-11-20T09:24:33;12.90;99.90
18339;DHT22;9295;44.484;11.240;2022-11-20T09:27:03;12.80;99.90
18339;DHT22;9295;44.484;11.240;2022-11-20T09:29:32;12.80;99.90
18339;DHT22;9295;44.484;11.240;2022-11-20T09:32:00;12.80;99.90
18339;DHT22;9295;44.484;11.240;2022-11-20T09:34:29;12.70;99.90
18339;DHT22;9295;44.484;11.240;2022-11-20T09:36:57;12.70;99.90
18339;DHT22;9295;44.484;11.240;2022-11-20T09:39:33;12.60;99.90
18339;DHT22;9295;44.484;11.240;2022-11-20T09:42:18;12.60;99.90
18339;DHT22;9295;44.484;11.240;2022-11-20T09:45:05;12.60;99.90
18339;DHT22;9295;44.484;11.240;2022-11-20T09:47:58;12.70;99.90
18339;DHT22;9295;44.484;11.240;2022-11-20T09:50:32;12.70;99.90
18339;DHT22;9295;44.484;11.240;2022-11-20T09:53:12;12.70;99.90
18339;DHT22;9295;44.484;11.240;2022-11-20T09:55:42;12.80;99.90
18339;DHT22;9295;44.484;11.240;2022-11-20T09:58:25;12.80;99.90
18339;DHT22;9295;44.484;11.240;2022-11-20T10:01:00;12.80;99.90
18339;DHT22;9295;44.484;11.240;2022-11-20T10:03:39;12.80;99.90
18339;DHT22;9295;44.484;11.240;2022-11-20T10:06:12;12.80;99.90
18339;DHT22;9295;44.484;11.240;2022-11-20T10:08:45;12.80;99.90
18339;DHT22;9295;44.484;11.240;2022-11-20T10:11:22;12.80;99.90
18339;DHT22;9295;44.484;11.240;2022-11-20T10:14:00;12.80;99.90
18339;DHT22;9295;44.484;11.240;2022-11-20T10:16:38;12.80;99.90
18339;DHT22;9295;44.484;11.240;2022-11-20T10:19:23;12.80;99.90
18339;DHT22;9295;44.484;11.240;2022-11-20T10:22:00;12.80;99.90
18339;DHT22;9295;44.484;11.240;2022-11-20T10:24:52;12.80;99.90
18339;DHT22;9295;44.484;11.240;2022-11-20T10:27:44;12.80;99.90
18339;DHT22;9295;44.484;11.240;2022-11-20T10:30:18;12.80;99.90
18339;DHT22;9295;44.484;11.240;2022-11-20T10:32:51;12.70;99.90
18339;DHT22;9295;44.484;11.240;2022-11-20T10:35:23;12.80;99.90
18339;DHT22;9295;44.484;11.240;2022-11-20T10:37:57;12.80;99.90
18339;DHT22;9295;44.484;11.240;2022-11-20T10:40:32;12.80;99.90
18339;DHT22;9295;44.484;11.240;2022-11-20T10:43:10;12.80;99.90
18339;DHT22;9295;44.484;11.240;2022-11-20T10:45:51;12.90;99.90
18339;DHT22;9295;44.484;11.240;2022-11-20T10:48:23;12.90;99.90
18339;DHT22;9295;44.484;11.240;2022-11-20T10:51:03;12.90;99.90
18339;DHT22;9295;44.484;11.240;2022-11-20T10:53:45;12.90;99.90
18339;DHT22;9295;44.484;11.240;2022-11-20T10:56:20;12.90;99.90
18339;DHT22;9295;44.484;11.240;2022-11-20T10:59:00;12.90;99.90
18339;DHT22;9295;44.484;11.240;2022-11-20T11:01:31;13.00;99.90
18339;DHT22;9295;44.484;11.240;2022-11-20T11:03:59;13.10;99.90
18339;DHT22;9295;44.484;11.240;2022-11-20T11:06:32;13.00;99.90
18339;DHT22;9295;44.484;11.240;2022-11-20T11:09:06;13.00;99.90
18339;DHT22;9295;44.484;11.240;2022-11-20T11:11:38;12.90;99.90
18339;DHT22;9295;44.484;11.240;2022-11-20T11:14:11;13.00;99.90
18339;DHT22;9295;44.484;11.240;2022-11-20T11:16:50;13.00;99.90
18339;DHT22;9295;44.484;11.240;2022-11-20T11:19:19;13.00;99.90
18339;DHT22;9295;44.484;11.240;2022-11-20T11:21:49;13.10;99.90
18339;DHT22;9295;44.484;11.240;2022-11-20T11:24:23;13.10;99.90
18339;DHT22;9295;44.484;11.240;2022-11-20T11:27:12;13.20;99.90
18339;DHT22;9295;44.484;11.240;2022-11-20T11:29:45;13.20;99.90
18339;DHT22;9295;44.484;11.240;2022-11-20T11:32:15;13.20;99.90
18339;DHT22;9295;44.484;11.240;2022-11-20T11:34:45;13.20;99.90
18339;DHT22;9295;44.484;11.240;2022-11-20T11:37:32;13.20;99.90
18339;DHT22;9295;44.484;11.240;2022-11-20T11:40:01;13.20;99.90
18339;DHT22;9295;44.484;11.240;2022-11-20T11:42:57;13.10;99.90
18339;DHT22;9295;44.484;11.240;2022-11-20T11:45:27;13.10;99.90
18339;DHT22;9295;44.484;11.240;2022-11-20T11:47:57;13.20;99.90
18339;DHT22;9295;44.484;11.240;2022-11-20T11:50:27;13.20;99.90
18339;DHT22;9295;44.484;11.240;2022-11-20T11:53:03;13.20;99.90
18339;DHT22;9295;44.484;11.240;2022-11-20T11:55:36;13.20;99.90
18339;DHT22;9295;44.484;11.240;2022-11-20T11:58:20;13.10;99.90
18339;DHT22;9295;44.484;11.240;2022-11-20T12:00:58;13.20;99.90
18339;DHT22;9295;44.484;11.240;2022-11-20T12:03:35;13.30;99.90
18339;DHT22;9295;44.484;11.240;2022-11-20T12:06:08;13.30;99.90
18339;DHT22;9295;44.484;11.240;2022-11-20T12:08:44;13.30;99.90
18339;DHT22;9295;44.484;11.240;2022-11-20T12:11:20;13.40;99.90
18339;DHT22;9295;44.484;11.240;2022-11-20T12:13:54;13.40;99.90
18339;DHT22;9295;44.484;11.240;2022-11-20T12:16:25;13.30;99.90
18339;DHT22;9295;44.484;11.240;2022-11-20T12:18:54;13.30;99.90
18339;DHT22;9295;44.484;11.240;2022-11-20T12:21:31;13.30;99.90
18339;DHT22;9295;44.484;11.240;2022-11-20T12:24:29;13.40;99.90
18339;DHT22;9295;44.484;11.240;2022-11-20T12:27:11;13.50;99.90
18339;DHT22;9295;44.484;11.240;2022-11-20T12:29:53;13.50;99.90
18339;DHT22;9295;44.484;11.240;2022-11-20T12:32:48;13.60;99.90
18339;DHT22;9295;44.484;11.240;2022-11-20T12:35:32;13.60;99.90
18339;DHT22;9295;44.484;11.240;2022-11-20T12:38:35;13.60;99.90
18339;DHT22;9295;44.484;11.240;2022-11-20T12:41:13;13.60;99.90
18339;DHT22;9295;44.484;11.240;2022-11-20T12:44:12;13.60;99.90
18339;DHT22;9295;44.484;11.240;2022-11-20T12:47:10;13.60;99.90
18339;DHT22;9295;44.484;11.240;2022-11-20T12:49:46;13.50;99.90
18339;DHT22;9295;44.484;11.240;2022-11-20T12:52:25;13.40;99.90
18339;DHT22;9295;44.484;11.240;2022-11-20T12:55:36;13.30;99.90
18339;DHT22;9295;44.484;11.240;2022-11-20T12:58:15;13.30;99.90
18339;DHT22;9295;44.484;11.240;2022-11-20T13:00:53;13.30;99.90
18339;DHT22;9295;44.484;11.240;2022-11-20T13:03:34;13.30;99.90
18339;DHT22;9295;44.484;11.240;2022-11-20T13:06:12;13.30;99.90
18339;DHT22;9295;44.484;11.240;2022-11-20T13:08:43;13.30;99.90
18339;DHT22;9295;44.484;11.240;2022-11-20T13:11:19;13.30;99.90
18339;DHT22;9295;44.484;11.240;2022-11-20T13:14:16;13.30;99.90
18339;DHT22;9295;44.484;11.240;2022-11-20T13:16:52;13.20;99.90
18339;DHT22;9295;44.484;11.240;2022-11-20T13:19:22;13.20;99.90
18339;DHT22;9295;44.484;11.240;2022-11-20T13:21:52;13.10;99.90
18339;DHT22;9295;44.484;11.240;2022-11-20T13:24:26;13.00;99.90
18339;DHT22;9295;44.484;11.240;2022-11-20T13:27:03;13.00;99.90
18339;DHT22;9295;44.484;11.240;2022-11-20T13:29:32;12.80;99.90
18339;DHT22;9295;44.484;11.240;2022-11-20T13:32:05;12.80;99.90
18339;DHT22;9295;44.484;11.240;2022-11-20T13:34:35;12.80;99.90
18339;DHT22;9295;44.484;11.240;2022-11-20T13:37:05;12.80;99.90
18339;DHT22;9295;44.484;11.240;2022-11-20T13:39:35;12.80;99.90
18339;DHT22;9295;44.484;11.240;2022-11-20T13:42:25;12.80;99.90
18339;DHT22;9295;44.484;11.240;2022-11-20T13:45:02;12.80;99.90
18339;DHT22;9295;44.484;11.240;2022-11-20T13:47:36;12.80;99.90
18339;DHT22;9295;44.484;11.240;2022-11-20T13:50:08;12.90;99.90
18339;DHT22;9295;44.484;11.240;2022-11-20T13:52:48;12.90;99.90
18339;DHT22;9295;44.484;11.240;2022-11-20T13:55:23;12.80;99.90
18339;DHT22;9295;44.484;11.240;2022-11-20T13:58:05;12.80;99.90
18339;DHT22;9295;44.484;11.240;2022-11-20T14:00:43;12.70;99.90
18339;DHT22;9295;44.484;11.240;2022-11-20T14:03:17;12.70;99.90
18339;DHT22;9295;44.484;11.240;2022-11-20T14:06:12;12.70;99.90
18339;DHT22;9295;44.484;11.240;2022-11-20T14:08:46;12.80;99.90
18339;DHT22;9295;44.484;11.240;2022-11-20T14:11:16;12.90;99.90
18339;DHT22;9295;44.484;11.240;2022-11-20T14:13:57;12.90;99.90
18339;DHT22;9295;44.484;11.240;2022-11-20T14:16:29;12.90;99.90
18339;DHT22;9295;44.484;11.240;2022-11-20T14:19:16;12.90;99.90
18339;DHT22;9295;44.484;11.240;2022-11-20T14:21:48;12.80;99.90
18339;DHT22;9295;44.484;11.240;2022-11-20T14:24:21;12.80;99.90
18339;DHT22;9295;44.484;11.240;2022-11-20T14:26:51;12.70;99.90
18339;DHT22;9295;44.484;11.240;2022-11-20T14:29:22;12.70;99.90
18339;DHT22;9295;44.484;11.240;2022-11-20T14:31:53;12.60;99.90
18339;DHT22;9295;44.484;11.240;2022-11-20T14:34:24;12.70;99.90
18339;DHT22;9295;44.484;11.240;2022-11-20T14:37:01;12.70;99.90
18339;DHT22;9295;44.484;11.240;2022-11-20T14:39:34;12.70;99.90
18339;DHT22;9295;44.484;11.240;2022-11-20T14:42:14;12.60;99.90
18339;DHT22;9295;44.484;11.240;2022-11-20T14:44:43;12.50;99.90
18339;DHT22;9295;44.484;11.240;2022-11-20T14:47:13;12.50;99.90
18339;DHT22;9295;44.484;11.240;2022-11-20T14:49:43;12.50;99.90
18339;DHT22;9295;44.484;11.240;2022-11-20T14:52:14;12.50;99.90
18339;DHT22;9295;44.484;11.240;2022-11-20T14:54:46;12.50;99.90
18339;DHT22;9295;44.484;11.240;2022-11-20T14:57:23;12.50;99.90
18339;DHT22;9295;44.484;11.240;2022-11-20T15:00:05;12.40;99.90
18339;DHT22;9295;44.484;11.240;2022-11-20T15:02:34;12.30;99.90
18339;DHT22;9295;44.484;11.240;2022-11-20T15:05:03;12.20;99.90
18339;DHT22;9295;44.484;11.240;2022-11-20T15:07:33;12.20;99.90
18339;DHT22;9295;44.484;11.240;2022-11-20T15:10:06;12.10;99.90
18339;DHT22;9295;44.484;11.240;2022-11-20T15:12:38;12.10;99.90
18339;DHT22;9295;44.484;11.240;2022-11-20T15:15:11;12.00;99.90
18339;DHT22;9295;44.484;11.240;2022-11-20T15:17:41;11.90;99.90
18339;DHT22;9295;44.484;11.240;2022-11-20T15:20:13;11.90;99.90
18339;DHT22;9295;44.484;11.240;2022-11-20T15:22:42;11.80;99.90
18339;DHT22;9295;44.484;11.240;2022-11-20T15:25:14;11.80;99.90
18339;DHT22;9295;44.484;11.240;2022-11-20T15:27:43;11.70;99.90
18339;DHT22;9295;44.484;11.240;2022-11-20T15:30:13;11.70;99.90
18339;DHT22;9295;44.484;11.240;2022-11-20T15:32:43;11.60;99.90
18339;DHT22;9295;44.484;11.240;2022-11-20T15:35:13;11.50;99.90
18339;DHT22;9295;44.484;11.240;2022-11-20T15:37:42;11.50;99.90
18339;DHT22;9295;44.484;11.240;2022-11-20T15:40:12;11.40;99.90
18339;DHT22;9295;44.484;11.240;2022-11-20T15:42:41;11.40;99.90
18339;DHT22;9295;44.484;11.240;2022-11-20T15:45:37;11.40;99.90
18339;DHT22;9295;44.484;11.240;2022-11-20T15:48:10;11.30;99.90
18339;DHT22;9295;44.484;11.240;2022-11-20T15:50:47;11.30;99.90
18339;DHT22;9295;44.484;11.240;2022-11-20T15:53:17;11.20;99.90
18339;DHT22;9295;44.484;11.240;2022-11-20T15:55:47;11.20;99.90
18339;DHT22;9295;44.484;11.240;2022-11-20T15:58:16;11.10;99.90
18339;DHT22;9295;44.484;11.240;2022-11-20T16:00:45;11.00;99.90
18339;DHT22;9295;44.484;11.240;2022-11-20T16:03:14;10.90;99.90
18339;DHT22;9295;44.484;11.240;2022-11-20T16:05:43;10.80;99.90
18339;DHT22;9295;44.484;11.240;2022-11-20T16:08:12;10.80;99.90